Time;durP1;ratioP1;P1;durP2;ratioP2;P2;SDS_P1;SDS_P2;PMS_P1;PMS_P2;Temp;Humidity;BMP_temperature;BMP_pressure;BME280_temperature;BME280_humidity;BME280_pressure;Samples;Min_cycle;Max_cycle;Signal;HPM_P1;HPM_P2
2023/05/31 00:02:00;;;;;;;13.40;2.10;;;;;;;9.83;62.73;101033.55;110006;1274;22217;-59
2023/05/31 00:04:31;;;;;;;12.90;2.10;;;;;;;9.77;63.00;101039.18;110012;1273;22320;-58
2023/05/31 00:07:02;;;;;;;11.00;2.10;;;;;;;9.72;63.11;101038.65;110011;1280;22886;-59
2023/05/31 00:09:33;;;;;;;11.30;2.70;;;;;;;9.67;63.21;101041.75;110008;1268;22192;-59
2023/05/31 00:12:04;;;;;;;10.60;2.20;;;;;;;9.65;63.34;101041.86;109999;1274;22186;-59
2023/05/31 00:14:35;;;;;;;12.20;2.40;;;;;;;9.60;63.48;101043.46;109984;1274;22376;-59
2023/05/31 00:17:06;;;;;;;20.30;2.30;;;;;;;9.55;63.57;101042.86;110020;1267;22210;-59
2023/05/31 00:19:37;;;;;;;9.00;1.80;;;;;;;9.51;63.85;101046.82;110025;1273;22327;-59
2023/05/31 00:22:09;;;;;;;15.80;2.10;;;;;;;9.47;63.84;101046.95;110021;1274;22144;-59
2023/05/31 00:24:40;;;;;;;11.70;2.20;;;;;;;9.42;63.95;101046.48;109989;1274;22270;-59
2023/05/31 00:27:11;;;;;;;11.20;2.20;;;;;;;9.38;64.10;101044.89;110021;1269;22312;-59
2023/05/31 00:29:42;;;;;;;19.60;2.60;;;;;;;9.34;64.28;101042.55;110007;1273;22331;-57
2023/05/31 00:32:13;;;;;;;13.80;2.40;;;;;;;9.31;64.40;101046.73;110036;1266;22144;-60
2023/05/31 00:34:43;;;;;;;10.20;1.80;;;;;;;9.27;64.47;101045.50;110020;1273;22243;-59
2023/05/31 00:37:14;;;;;;;12.60;2.50;;;;;;;9.23;64.54;101040.64;110009;1280;22892;-59
2023/05/31 00:39:45;;;;;;;12.90;2.60;;;;;;;9.20;64.69;101041.38;110061;1273;22969;-59
2023/05/31 00:42:16;;;;;;;13.20;2.50;;;;;;;9.17;64.70;101040.20;110029;1274;22127;-59
2023/05/31 00:44:47;;;;;;;10.90;2.10;;;;;;;9.14;64.87;101039.27;110016;1272;22234;-58
2023/05/31 00:47:18;;;;;;;10.00;2.30;;;;;;;9.11;64.97;101039.00;106673;1280;26546;-58
2023/05/31 00:49:49;;;;;;;13.30;2.50;;;;;;;9.08;65.09;101039.80;105929;1270;22544;-58
2023/05/31 00:52:20;;;;;;;14.60;2.50;;;;;;;9.05;65.36;101037.62;110025;1271;22202;-56
2023/05/31 00:54:52;;;;;;;10.10;1.90;;;;;;;9.00;65.50;101036.58;110004;1273;22149;-59
2023/05/31 00:57:23;;;;;;;13.60;2.70;;;;;;;8.96;65.56;101037.24;109996;1276;22236;-58
2023/05/31 00:59:54;;;;;;;12.10;2.70;;;;;;;8.92;65.82;101036.20;110019;1274;23006;-59
2023/05/31 01:02:25;;;;;;;12.40;2.00;;;;;;;8.88;65.88;101035.29;110044;1274;22854;-58
2023/05/31 01:04:57;;;;;;;14.50;2.20;;;;;;;8.86;66.07;101034.67;110013;1272;22293;-58
2023/05/31 01:07:28;;;;;;;15.90;2.50;;;;;;;8.82;66.26;101036.05;109995;1273;22373;-59
2023/05/31 01:10:00;;;;;;;11.10;1.90;;;;;;;8.79;66.42;101042.14;110029;1279;22306;-58
2023/05/31 01:12:38;;;;;;;13.40;2.40;;;;;;;8.76;66.60;101037.54;110008;1274;22312;-59
2023/05/31 01:15:15;;;;;;;12.20;2.60;;;;;;;8.73;66.78;101038.42;109950;1274;22184;-56
2023/05/31 01:17:59;;;;;;;14.70;2.90;;;;;;;8.69;66.93;101041.73;110030;1274;22195;-59
2023/05/31 01:20:33;;;;;;;11.90;2.60;;;;;;;8.66;67.21;101040.90;109959;1271;22156;-59
2023/05/31 01:23:34;;;;;;;10.70;2.50;;;;;;;8.62;67.60;101043.47;110011;1277;23090;-59
2023/05/31 01:26:31;;;;;;;13.50;2.80;;;;;;;8.58;67.85;101044.95;110061;1267;22164;-57
2023/05/31 01:29:05;;;;;;;13.10;3.50;;;;;;;8.55;68.07;101046.33;110011;1277;22159;-58
2023/05/31 01:31:37;;;;;;;16.70;3.80;;;;;;;8.51;68.10;101045.19;109978;1265;22192;-58
2023/05/31 01:34:09;;;;;;;16.30;2.70;;;;;;;8.48;68.14;101048.16;110034;1280;22291;-57
2023/05/31 01:36:41;;;;;;;16.40;3.80;;;;;;;8.45;68.38;101045.85;110020;1265;22144;-58
2023/05/31 01:39:12;;;;;;;20.10;4.90;;;;;;;8.42;68.52;101048.64;110039;1274;22496;-59
2023/05/31 01:41:46;;;;;;;26.40;4.20;;;;;;;8.40;68.78;101044.10;110039;1280;23112;-59
2023/05/31 01:44:19;;;;;;;24.60;3.80;;;;;;;8.38;69.02;101042.74;110026;1267;22206;-59
2023/05/31 01:46:51;;;;;;;16.60;3.70;;;;;;;8.35;69.12;101042.59;109993;1277;22809;-58
2023/05/31 01:49:24;;;;;;;16.40;3.90;;;;;;;8.32;69.17;101044.09;110055;1272;22405;-58
2023/05/31 01:51:55;;;;;;;21.80;4.40;;;;;;;8.28;69.22;101044.71;110003;1280;22222;-58
2023/05/31 01:54:26;;;;;;;17.20;4.60;;;;;;;8.25;69.33;101051.40;110045;1273;22968;-58
2023/05/31 01:56:58;;;;;;;16.90;3.60;;;;;;;8.22;69.34;101057.36;110014;1277;22182;-57
2023/05/31 01:59:30;;;;;;;14.00;3.80;;;;;;;8.18;69.47;101053.17;110012;1277;22134;-59
2023/05/31 02:02:01;;;;;;;17.40;3.70;;;;;;;8.14;69.48;101053.14;110044;1264;22897;-58
2023/05/31 02:04:33;;;;;;;15.10;2.60;;;;;;;8.12;69.47;101054.08;110025;1271;22335;-56
2023/05/31 02:07:04;;;;;;;16.10;3.50;;;;;;;8.09;69.54;101054.08;109989;1280;22209;-58
2023/05/31 02:09:35;;;;;;;17.10;4.00;;;;;;;8.06;69.62;101056.69;110028;1274;22316;-59
2023/05/31 02:12:07;;;;;;;15.00;2.90;;;;;;;8.04;69.69;101058.66;110041;1271;22292;-62
2023/05/31 02:14:38;;;;;;;19.10;5.00;;;;;;;8.02;69.74;101059.44;110046;1280;22330;-59
2023/05/31 02:17:09;;;;;;;13.20;2.90;;;;;;;8.02;69.93;101061.67;110013;1273;22242;-59
2023/05/31 02:19:40;;;;;;;18.30;3.20;;;;;;;8.03;70.15;101058.22;110051;1271;22219;-59
2023/05/31 02:22:11;;;;;;;15.30;3.30;;;;;;;8.02;70.13;101056.51;110020;1280;22161;-59
2023/05/31 02:24:42;;;;;;;15.00;3.00;;;;;;;8.02;70.10;101060.80;110049;1277;23140;-58
2023/05/31 02:27:13;;;;;;;12.90;3.30;;;;;;;8.03;70.13;101065.23;110040;1277;22193;-58
2023/05/31 02:29:45;;;;;;;11.50;2.40;;;;;;;8.05;70.30;101065.80;110060;1273;22440;-59
2023/05/31 02:32:16;;;;;;;14.40;2.60;;;;;;;8.05;70.34;101072.05;110035;1277;22794;-59
2023/05/31 02:34:48;;;;;;;12.30;2.50;;;;;;;8.03;70.47;101072.19;110052;1277;22169;-59
2023/05/31 02:37:19;;;;;;;18.20;2.90;;;;;;;8.02;70.44;101074.77;110034;1273;22205;-59
2023/05/31 02:39:49;;;;;;;12.70;2.30;;;;;;;8.01;70.51;101074.33;110037;1280;22181;-59
2023/05/31 02:42:20;;;;;;;17.10;2.80;;;;;;;8.00;70.41;101075.40;110010;1277;22629;-59
2023/05/31 02:44:51;;;;;;;8.90;2.10;;;;;;;7.99;70.47;101075.98;110029;1277;22192;-59
2023/05/31 02:47:22;;;;;;;10.90;2.40;;;;;;;7.98;70.50;101076.96;110027;1277;22143;-59
2023/05/31 02:49:53;;;;;;;8.70;1.80;;;;;;;7.98;70.65;101075.77;110014;1273;22155;-58
2023/05/31 02:52:24;;;;;;;11.00;1.90;;;;;;;8.00;71.19;101073.24;110046;1273;23127;-59
2023/05/31 02:54:55;;;;;;;9.40;1.70;;;;;;;8.05;70.99;101069.93;110059;1277;22212;-58
2023/05/31 02:57:26;;;;;;;12.30;2.10;;;;;;;8.07;70.86;101069.79;110030;1274;22205;-58
2023/05/31 03:00:01;;;;;;;7.80;1.70;;;;;;;8.07;70.73;101069.94;110046;1270;22717;-58
2023/05/31 03:02:32;;;;;;;10.20;1.70;;;;;;;8.13;71.13;101074.61;110059;1277;22336;-58
2023/05/31 03:05:03;;;;;;;14.20;2.00;;;;;;;8.22;70.97;101075.61;110035;1273;22184;-59
2023/05/31 03:07:34;;;;;;;17.00;1.90;;;;;;;8.31;70.96;101074.67;110044;1267;22383;-58
2023/05/31 03:10:07;;;;;;;9.60;1.70;;;;;;;8.37;71.22;101074.08;110051;1280;22185;-59
2023/05/31 03:12:38;;;;;;;10.70;2.60;;;;;;;8.42;71.31;101069.25;110028;1273;22332;-59
2023/05/31 03:15:11;;;;;;;12.00;2.10;;;;;;;8.44;71.53;101065.11;110037;1280;22987;-59
2023/05/31 03:17:41;;;;;;;14.80;1.90;;;;;;;8.49;71.61;101068.86;110034;1273;22204;-59
2023/05/31 03:20:13;;;;;;;11.10;2.10;;;;;;;8.56;71.52;101075.34;110008;1276;23089;-59
2023/05/31 03:22:44;;;;;;;12.20;2.00;;;;;;;8.56;71.49;101076.27;110020;1272;22160;-59
2023/05/31 03:25:16;;;;;;;13.40;2.10;;;;;;;8.55;71.69;101078.05;110025;1265;22631;-59
2023/05/31 03:27:47;;;;;;;10.00;1.60;;;;;;;8.51;71.73;101077.94;110046;1270;22964;-59
2023/05/31 03:30:18;;;;;;;14.40;1.60;;;;;;;8.48;71.89;101080.49;110016;1274;22182;-59
2023/05/31 03:32:49;;;;;;;10.90;2.30;;;;;;;8.45;72.06;101081.69;106259;1280;23411;-58
2023/05/31 03:35:20;;;;;;;14.60;2.80;;;;;;;8.43;71.88;101080.34;106008;1277;24382;-57
2023/05/31 03:37:50;;;;;;;14.90;2.70;;;;;;;8.43;72.04;101076.05;106028;1278;24196;-57
2023/05/31 03:40:22;;;;;;;12.20;2.60;;;;;;;8.41;72.22;101075.61;106126;1265;24224;-57
2023/05/31 03:42:53;;;;;;;14.60;2.00;;;;;;;8.41;72.34;101078.17;110067;1269;23108;-58
2023/05/31 03:45:24;;;;;;;13.00;2.50;;;;;;;8.43;72.27;101078.11;110044;1273;22853;-59
2023/05/31 03:47:55;;;;;;;13.90;2.40;;;;;;;8.49;72.83;101071.96;110040;1280;22825;-58
2023/05/31 03:50:26;;;;;;;15.20;3.10;;;;;;;8.57;72.66;101076.71;110047;1277;22160;-58
2023/05/31 03:52:56;;;;;;;12.70;2.60;;;;;;;8.62;72.69;101073.00;110041;1276;22188;-59
2023/05/31 03:55:28;;;;;;;19.30;2.60;;;;;;;8.66;72.82;101076.74;110033;1277;22912;-59
2023/05/31 03:57:58;;;;;;;12.50;1.70;;;;;;;8.72;72.87;101078.56;110004;1269;22204;-58
2023/05/31 04:00:29;;;;;;;13.60;3.00;;;;;;;8.75;73.01;101080.27;110033;1264;22272;-59
2023/05/31 04:03:00;;;;;;;16.00;2.80;;;;;;;8.79;72.93;101083.08;110036;1280;22161;-59
2023/05/31 04:05:31;;;;;;;9.70;2.20;;;;;;;8.85;72.83;101080.42;110017;1264;22347;-59
2023/05/31 04:08:02;;;;;;;14.50;2.40;;;;;;;8.91;73.01;101082.77;110034;1277;22152;-58
2023/05/31 04:10:34;;;;;;;15.60;2.50;;;;;;;8.97;72.88;101078.77;109992;1272;22251;-58
2023/05/31 04:13:04;;;;;;;14.90;2.10;;;;;;;9.04;72.91;101083.32;110033;1276;22162;-59
2023/05/31 04:15:36;;;;;;;14.90;3.00;;;;;;;9.11;73.03;101082.99;110023;1271;22161;-58
2023/05/31 04:18:07;;;;;;;17.70;2.70;;;;;;;9.20;73.22;101088.34;110011;1279;22365;-59
2023/05/31 04:20:38;;;;;;;15.80;3.10;;;;;;;9.29;73.34;101085.73;110012;1269;22210;-60
2023/05/31 04:23:09;;;;;;;15.20;2.90;;;;;;;9.38;73.29;101083.90;110040;1273;22287;-69
2023/05/31 04:25:40;;;;;;;14.80;3.40;;;;;;;9.49;73.52;101085.43;110010;1271;22143;-59
2023/05/31 04:28:12;;;;;;;13.60;2.80;;;;;;;9.63;73.45;101085.82;106732;1273;22551;-58
2023/05/31 04:30:45;;;;;;;11.40;2.20;;;;;;;9.74;73.47;101088.89;105905;1265;24285;-60
2023/05/31 04:33:17;;;;;;;15.20;3.40;;;;;;;9.85;73.36;101088.54;109991;1274;22213;-60
2023/05/31 04:35:48;;;;;;;14.00;2.90;;;;;;;9.96;73.44;101090.27;110028;1277;22852;-60
2023/05/31 04:38:19;;;;;;;20.10;3.50;;;;;;;10.11;73.33;101086.20;110066;1268;22158;-59
2023/05/31 04:40:50;;;;;;;13.80;2.90;;;;;;;10.27;73.11;101083.73;110023;1273;23069;-59
2023/05/31 04:43:21;;;;;;;15.00;2.50;;;;;;;10.38;72.87;101078.98;110040;1271;22327;-59
2023/05/31 04:45:52;;;;;;;18.20;4.10;;;;;;;10.50;73.13;101081.37;109991;1275;22246;-58
2023/05/31 04:48:24;;;;;;;11.60;2.90;;;;;;;10.63;72.96;101083.98;110026;1273;22358;-56
2023/05/31 04:50:56;;;;;;;12.80;2.80;;;;;;;10.75;73.06;101086.38;110012;1275;22136;-59
2023/05/31 04:53:27;;;;;;;14.80;2.90;;;;;;;10.90;72.98;101095.42;109998;1271;22157;-59
2023/05/31 04:56:04;;;;;;;10.60;2.90;;;;;;;11.06;73.24;101092.17;109982;1274;22254;-59
2023/05/31 04:58:35;;;;;;;16.20;3.10;;;;;;;11.24;72.73;101095.27;109981;1277;22280;-59
2023/05/31 05:01:06;;;;;;;10.70;2.70;;;;;;;11.41;72.73;101090.33;110011;1268;22136;-56
2023/05/31 05:03:37;;;;;;;15.70;2.70;;;;;;;11.62;72.53;101095.90;110000;1265;22344;-59
2023/05/31 05:06:16;;;;;;;14.50;3.10;;;;;;;11.83;72.16;101092.81;109946;1272;22201;-56
2023/05/31 05:08:47;;;;;;;14.50;3.70;;;;;;;12.02;71.86;101094.45;110003;1280;22158;-59
2023/05/31 05:11:18;;;;;;;13.00;3.10;;;;;;;12.21;71.59;101095.98;110002;1269;22156;-58
2023/05/31 05:13:49;;;;;;;12.70;2.30;;;;;;;12.40;71.36;101095.80;110039;1260;22180;-59
2023/05/31 05:16:21;;;;;;;13.80;2.70;;;;;;;12.60;71.01;101099.84;110007;1268;23171;-59
2023/05/31 05:18:52;;;;;;;14.70;2.80;;;;;;;12.81;70.68;101096.48;110006;1271;22196;-58
2023/05/31 05:21:23;;;;;;;11.80;2.20;;;;;;;13.01;70.34;101099.52;110035;1273;22907;-58
2023/05/31 05:23:54;;;;;;;13.50;2.20;;;;;;;13.19;70.20;101099.05;110008;1280;22232;-59
2023/05/31 05:26:25;;;;;;;16.90;2.70;;;;;;;13.39;69.34;101091.36;109987;1270;22252;-58
2023/05/31 05:28:56;;;;;;;9.70;2.10;;;;;;;13.56;69.14;101088.98;110023;1277;22209;-59
2023/05/31 05:31:27;;;;;;;15.00;2.10;;;;;;;13.71;68.75;101085.52;109999;1276;22861;-56
2023/05/31 05:33:58;;;;;;;19.30;2.60;;;;;;;13.90;68.60;101088.57;109963;1273;22853;-59
2023/05/31 05:36:30;;;;;;;12.60;2.00;;;;;;;14.08;68.12;101082.88;109983;1273;22301;-57
2023/05/31 05:39:04;;;;;;;19.40;2.20;;;;;;;14.21;67.64;101084.30;109985;1272;22213;-59
2023/05/31 05:41:34;;;;;;;11.30;1.80;;;;;;;14.36;67.35;101081.48;110011;1264;23132;-60
2023/05/31 05:44:06;;;;;;;13.40;2.60;;;;;;;14.49;67.12;101082.37;109989;1273;22234;-59
2023/05/31 05:46:37;;;;;;;10.80;2.10;;;;;;;14.60;66.82;101081.21;110018;1264;22245;-60
2023/05/31 05:49:07;;;;;;;9.90;1.80;;;;;;;14.72;66.35;101081.60;109995;1270;22163;-59
2023/05/31 05:51:39;;;;;;;11.90;1.70;;;;;;;14.82;66.17;101082.98;110021;1265;22220;-61
2023/05/31 05:54:10;;;;;;;11.80;2.40;;;;;;;14.95;66.06;101085.98;110025;1279;22427;-60
2023/05/31 05:56:40;;;;;;;9.30;1.70;;;;;;;15.14;65.55;101086.94;110013;1274;22193;-61
2023/05/31 05:59:14;;;;;;;13.80;2.00;;;;;;;15.28;65.30;101090.14;109965;1273;23597;-57
2023/05/31 06:01:45;;;;;;;15.50;1.80;;;;;;;15.39;64.69;101087.95;109997;1272;22802;-60
2023/05/31 06:04:16;;;;;;;11.50;2.00;;;;;;;15.52;64.55;101088.89;109965;1274;22876;-60
2023/05/31 06:06:47;;;;;;;16.40;2.50;;;;;;;15.62;64.17;101089.08;110011;1274;22211;-60
2023/05/31 06:09:18;;;;;;;11.90;1.80;;;;;;;15.71;63.98;101093.36;109979;1267;22184;-61
2023/05/31 06:11:49;;;;;;;5.90;1.10;;;;;;;15.78;63.43;101091.45;110016;1277;22184;-61
2023/05/31 06:14:20;;;;;;;5.40;1.00;;;;;;;15.86;62.67;101096.11;109996;1273;22159;-61
2023/05/31 06:16:51;;;;;;;8.60;1.40;;;;;;;15.93;62.63;101096.44;110023;1276;22171;-61
2023/05/31 06:19:22;;;;;;;6.60;1.20;;;;;;;16.04;62.22;101092.39;110018;1273;22194;-60
2023/05/31 06:21:56;;;;;;;10.60;1.70;;;;;;;16.16;62.12;101090.79;110013;1274;22224;-60
2023/05/31 06:24:27;;;;;;;9.80;1.80;;;;;;;16.34;62.13;101091.77;109916;1273;22218;-60
2023/05/31 06:26:57;;;;;;;9.10;1.50;;;;;;;16.50;61.54;101095.83;110012;1280;22147;-63
2023/05/31 06:29:28;;;;;;;9.30;1.40;;;;;;;16.53;61.24;101093.55;110002;1269;23266;-60
2023/05/31 06:31:59;;;;;;;10.40;1.90;;;;;;;16.61;61.20;101090.20;110017;1270;22199;-62
2023/05/31 06:34:30;;;;;;;23.20;1.80;;;;;;;16.71;61.11;101090.53;109975;1272;22418;-60
2023/05/31 06:37:01;;;;;;;9.50;1.50;;;;;;;16.85;60.66;101089.50;109985;1274;22154;-60
2023/05/31 06:39:33;;;;;;;9.90;1.40;;;;;;;16.98;60.53;101089.48;110026;1267;22331;-61
2023/05/31 06:42:05;;;;;;;12.20;2.30;;;;;;;17.10;60.41;101092.98;110013;1279;22188;-61
2023/05/31 06:44:36;;;;;;;10.80;1.50;;;;;;;17.18;59.08;101088.02;109998;1272;22344;-60
2023/05/31 06:47:07;;;;;;;11.20;1.40;;;;;;;17.24;59.38;101090.97;109978;1276;22333;-61
2023/05/31 06:49:38;;;;;;;11.30;1.50;;;;;;;17.37;58.92;101087.70;109019;1273;22526;-60
2023/05/31 06:52:10;;;;;;;7.00;1.30;;;;;;;17.46;57.90;101082.56;109961;1273;22342;-61
2023/05/31 06:54:43;;;;;;;12.20;1.20;;;;;;;17.48;57.59;101082.38;109989;1269;22200;-62
2023/05/31 06:57:14;;;;;;;8.50;1.40;;;;;;;17.54;57.81;101079.76;110018;1279;22127;-62
2023/05/31 06:59:45;;;;;;;11.00;1.30;;;;;;;17.66;56.83;101083.86;110051;1278;22171;-61
2023/05/31 07:02:16;;;;;;;12.10;1.70;;;;;;;17.68;56.46;101081.86;110013;1271;22161;-61
2023/05/31 07:04:47;;;;;;;9.50;1.60;;;;;;;17.73;56.56;101080.44;110008;1269;22163;-61
2023/05/31 07:07:18;;;;;;;11.70;1.40;;;;;;;17.82;56.34;101076.46;110030;1267;22171;-59
2023/05/31 07:09:50;;;;;;;10.70;1.10;;;;;;;17.92;55.82;101080.59;110009;1273;22183;-61
2023/05/31 07:12:21;;;;;;;10.60;1.30;;;;;;;17.95;55.27;101078.29;109980;1266;22340;-61
2023/05/31 07:14:52;;;;;;;4.70;1.10;;;;;;;17.98;54.93;101076.40;109974;1276;22123;-63
2023/05/31 07:17:24;;;;;;;7.40;1.20;;;;;;;18.00;54.66;101072.44;107349;1274;23913;-61
2023/05/31 07:19:54;;;;;;;7.00;1.40;;;;;;;18.00;54.47;101073.57;106149;1274;22546;-58
2023/05/31 07:22:25;;;;;;;9.40;1.40;;;;;;;18.01;54.47;101071.77;105877;1274;22614;-64
2023/05/31 07:24:57;;;;;;;8.10;1.10;;;;;;;18.08;54.44;101069.59;105903;1272;22542;-58
2023/05/31 07:27:27;;;;;;;8.70;1.20;;;;;;;18.17;54.23;101067.74;105915;1265;25341;-60
2023/05/31 07:29:58;;;;;;;8.70;1.30;;;;;;;18.29;53.98;101066.06;105928;1280;22535;-58
2023/05/31 07:32:29;;;;;;;9.20;1.10;;;;;;;18.38;53.72;101063.34;109973;1269;22190;-59
2023/05/31 07:35:00;;;;;;;5.60;1.00;;;;;;;18.42;53.23;101062.23;109982;1270;22776;-57
2023/05/31 07:37:31;;;;;;;10.60;1.50;;;;;;;18.44;53.43;101066.61;109985;1267;22793;-59
2023/05/31 07:40:04;;;;;;;6.30;1.20;;;;;;;18.55;54.10;101067.69;109991;1269;22192;-59
2023/05/31 07:42:36;;;;;;;7.50;1.30;;;;;;;18.70;53.90;101064.02;109976;1274;22225;-60
2023/05/31 07:45:08;;;;;;;8.10;1.30;;;;;;;18.81;53.54;101063.91;109999;1273;22135;-59
2023/05/31 07:47:39;;;;;;;10.70;1.50;;;;;;;18.91;52.80;101064.46;110018;1273;22370;-59
2023/05/31 07:50:11;;;;;;;10.20;1.20;;;;;;;18.92;52.69;101062.96;110012;1270;22133;-59
2023/05/31 07:52:42;;;;;;;8.50;1.30;;;;;;;18.94;52.68;101061.58;109974;1268;22159;-60
2023/05/31 07:55:13;;;;;;;8.50;1.80;;;;;;;19.01;52.54;101057.96;110038;1270;22826;-59
2023/05/31 07:57:44;;;;;;;9.70;1.10;;;;;;;19.08;52.18;101055.98;109978;1273;22436;-59
2023/05/31 08:00:16;;;;;;;6.80;1.50;;;;;;;19.12;51.99;101049.75;110018;1280;22139;-60
2023/05/31 08:02:47;;;;;;;8.00;1.20;;;;;;;19.15;51.65;101051.60;110005;1274;22197;-59
2023/05/31 08:05:18;;;;;;;8.70;1.20;;;;;;;19.19;51.46;101046.70;110062;1265;22296;-60
2023/05/31 08:07:49;;;;;;;7.30;1.40;;;;;;;19.28;51.44;101043.10;109989;1274;22130;-60
2023/05/31 08:10:20;;;;;;;5.00;0.90;;;;;;;19.37;50.88;101045.30;109967;1274;22161;-60
2023/05/31 08:12:51;;;;;;;6.80;1.20;;;;;;;19.42;50.77;101043.49;109990;1274;22131;-60
2023/05/31 08:15:22;;;;;;;8.00;1.10;;;;;;;19.48;50.23;101046.86;109996;1272;22347;-59
2023/05/31 08:17:53;;;;;;;6.40;1.10;;;;;;;19.50;49.60;101043.77;110023;1279;22309;-59
2023/05/31 08:20:24;;;;;;;6.00;0.90;;;;;;;19.49;49.57;101045.73;110006;1273;22186;-59
2023/05/31 08:22:55;;;;;;;7.50;0.90;;;;;;;19.54;49.48;101046.73;109994;1276;22211;-60
2023/05/31 08:25:26;;;;;;;6.50;0.80;;;;;;;19.60;48.82;101042.94;110004;1276;22821;-59
2023/05/31 08:27:57;;;;;;;8.40;0.90;;;;;;;19.60;48.50;101045.67;109982;1276;22252;-59
2023/05/31 08:30:28;;;;;;;7.20;0.90;;;;;;;19.64;48.27;101039.58;109996;1273;22271;-59
2023/05/31 08:32:59;;;;;;;9.20;0.90;;;;;;;19.74;48.04;101041.63;110018;1280;22675;-59
2023/05/31 08:35:30;;;;;;;4.90;0.80;;;;;;;19.82;47.59;101036.92;106306;1274;22538;-59
2023/05/31 08:38:02;;;;;;;6.80;0.90;;;;;;;19.93;47.90;101036.20;106078;1280;23110;-58
2023/05/31 08:40:33;;;;;;;7.20;0.90;;;;;;;20.04;47.56;101038.60;106048;1273;24387;-59
2023/05/31 08:43:09;;;;;;;7.40;1.10;;;;;;;20.10;46.46;101037.48;105952;1280;22533;-57
2023/05/31 08:45:41;;;;;;;5.10;0.70;;;;;;;20.15;46.36;101039.86;110024;1273;22177;-60
2023/05/31 08:48:18;;;;;;;3.20;0.60;;;;;;;20.22;45.80;101040.77;108090;1274;22528;-59
2023/05/31 08:50:50;;;;;;;5.20;0.80;;;;;;;20.23;45.45;101038.48;109986;1280;22897;-59
2023/05/31 08:53:24;;;;;;;4.90;1.70;;;;;;;20.24;45.48;101040.95;110015;1273;22166;-59
2023/05/31 08:55:56;;;;;;;5.20;0.70;;;;;;;20.28;44.62;101039.84;109993;1273;22984;-59
2023/05/31 08:58:28;;;;;;;5.00;0.60;;;;;;;20.26;43.71;101040.18;110029;1279;22205;-59
2023/05/31 09:00:59;;;;;;;6.00;0.80;;;;;;;20.31;44.27;101038.54;110035;1270;22180;-60
2023/05/31 09:03:33;;;;;;;7.10;1.00;;;;;;;20.41;44.02;101037.63;110041;1267;22623;-59
2023/05/31 09:06:04;;;;;;;5.90;0.90;;;;;;;20.49;43.95;101044.06;110023;1279;22180;-59
2023/05/31 09:08:34;;;;;;;3.30;0.50;;;;;;;20.56;43.05;101043.06;110016;1276;22851;-58
2023/05/31 09:11:07;;;;;;;5.70;0.60;;;;;;;20.62;42.90;101039.15;109994;1273;22155;-60
2023/05/31 09:13:38;;;;;;;5.70;0.60;;;;;;;20.66;42.17;101039.92;110025;1273;22203;-59
2023/05/31 09:16:09;;;;;;;6.70;0.70;;;;;;;20.69;41.97;101032.77;110006;1280;22357;-60
2023/05/31 09:18:41;;;;;;;4.20;0.70;;;;;;;20.73;41.83;101033.00;110000;1273;22206;-60
2023/05/31 09:21:14;;;;;;;5.80;0.70;;;;;;;20.72;41.67;101033.17;109995;1280;23024;-60
2023/05/31 09:23:54;;;;;;;7.00;0.80;;;;;;;20.71;41.39;101034.83;110040;1277;22276;-60
2023/05/31 09:26:26;;;;;;;3.90;0.60;;;;;;;20.73;41.42;101028.31;109990;1273;22321;-59
2023/05/31 09:28:58;;;;;;;5.50;0.70;;;;;;;20.78;41.45;101030.67;110010;1274;22254;-59
2023/05/31 09:31:29;;;;;;;4.10;0.70;;;;;;;20.80;40.95;101031.38;110007;1273;22134;-58
2023/05/31 09:34:00;;;;;;;5.40;0.60;;;;;;;20.85;41.16;101026.68;110015;1273;22145;-58
2023/05/31 09:36:34;;;;;;;6.20;0.90;;;;;;;20.92;40.83;101027.69;110038;1265;22385;-60
2023/05/31 09:39:08;;;;;;;4.40;0.50;;;;;;;20.90;40.19;101016.01;109994;1276;22286;-60
2023/05/31 09:41:38;;;;;;;4.20;0.80;;;;;;;20.88;40.18;101016.06;108039;1267;22950;-59
2023/05/31 09:44:11;;;;;;;8.10;0.80;;;;;;;20.91;40.18;101011.55;109988;1270;22865;-59
2023/05/31 09:46:42;;;;;;;3.90;0.40;;;;;;;20.95;39.96;101007.46;110003;1277;22275;-60
2023/05/31 09:49:14;;;;;;;10.00;0.80;;;;;;;20.98;39.61;101008.22;109983;1280;22353;-59
2023/05/31 09:51:52;;;;;;;4.20;0.70;;;;;;;21.03;39.99;100998.75;110044;1272;22933;-58
2023/05/31 09:54:25;;;;;;;5.00;0.70;;;;;;;21.10;39.52;101000.27;110009;1267;23191;-59
2023/05/31 09:56:56;;;;;;;7.70;0.60;;;;;;;21.13;39.45;100997.14;107473;1280;22592;-58
2023/05/31 09:59:27;;;;;;;2.40;0.60;;;;;;;21.15;39.42;101000.21;106033;1277;22520;-59
2023/05/31 10:01:59;;;;;;;4.50;0.80;;;;;;;21.19;39.29;101000.67;106128;1279;24272;-58
2023/05/31 10:04:33;;;;;;;3.40;0.60;;;;;;;21.25;39.46;101000.51;106138;1274;25578;-59
2023/05/31 10:07:05;;;;;;;5.50;0.50;;;;;;;21.30;38.97;100996.83;106255;1280;22539;-58
2023/05/31 10:09:36;;;;;;;5.20;0.80;;;;;;;21.24;38.39;100991.89;109993;1273;22322;-60
2023/05/31 10:12:08;;;;;;;5.60;0.60;;;;;;;21.16;38.40;100983.27;109998;1280;22306;-59
2023/05/31 10:14:44;;;;;;;4.90;0.80;;;;;;;21.15;38.79;100979.05;110006;1275;22421;-60
2023/05/31 10:17:20;;;;;;;4.90;0.60;;;;;;;21.23;38.73;100979.87;110025;1273;22180;-58
2023/05/31 10:19:59;;;;;;;4.50;0.70;;;;;;;21.28;38.51;100982.23;109993;1272;22087;-60
2023/05/31 10:22:34;;;;;;;3.60;0.70;;;;;;;21.27;37.94;100983.55;109998;1277;22391;-59
2023/05/31 10:25:11;;;;;;;3.50;0.50;;;;;;;21.23;37.82;100980.80;110015;1276;22199;-60
2023/05/31 10:27:46;;;;;;;5.30;0.60;;;;;;;21.23;37.65;100971.76;110009;1272;22246;-58
2023/05/31 10:30:25;;;;;;;5.90;0.50;;;;;;;21.27;38.22;100964.15;110016;1273;22132;-59
2023/05/31 10:33:01;;;;;;;4.90;0.70;;;;;;;21.44;38.35;100966.63;110015;1280;22243;-59
2023/05/31 10:35:32;;;;;;;5.00;0.60;;;;;;;21.56;37.70;100971.41;110039;1276;22169;-60
2023/05/31 10:38:03;;;;;;;4.10;0.50;;;;;;;21.56;37.30;100966.54;110032;1266;22937;-60
2023/05/31 10:40:43;;;;;;;3.30;0.50;;;;;;;21.61;37.67;100966.33;110023;1273;22155;-60
2023/05/31 10:43:21;;;;;;;4.50;0.60;;;;;;;21.65;37.78;100966.64;110000;1267;22269;-59
2023/05/31 10:45:56;;;;;;;3.60;0.70;;;;;;;21.71;37.35;100962.86;110005;1265;23673;-60
2023/05/31 10:48:33;;;;;;;9.60;1.20;;;;;;;21.79;37.46;100968.19;110027;1265;22351;-60
2023/05/31 10:51:04;;;;;;;6.60;0.80;;;;;;;21.86;36.71;100959.21;110007;1280;22149;-58
2023/05/31 10:53:37;;;;;;;5.30;0.80;;;;;;;21.87;36.47;100951.85;110008;1260;22793;-59
2023/05/31 10:56:10;;;;;;;4.60;0.80;;;;;;;21.92;36.63;100952.35;110007;1266;22191;-60
2023/05/31 10:58:42;;;;;;;4.70;0.90;;;;;;;21.98;36.16;100951.92;110029;1277;22225;-59
2023/05/31 11:01:22;;;;;;;2.80;0.60;;;;;;;22.05;36.48;100948.56;110013;1276;22948;-59
2023/05/31 11:03:55;;;;;;;6.40;0.70;;;;;;;22.10;36.46;100945.58;109994;1264;23065;-59
2023/05/31 11:06:28;;;;;;;4.60;0.70;;;;;;;22.13;36.24;100945.27;110015;1265;22329;-59
2023/05/31 11:09:05;;;;;;;3.60;0.50;;;;;;;22.12;36.33;100942.92;110021;1272;22140;-60
2023/05/31 11:11:47;;;;;;;6.60;1.00;;;;;;;22.14;36.95;100938.52;110007;1273;22310;-59
2023/05/31 11:14:31;;;;;;;4.60;0.60;;;;;;;22.23;36.62;100938.83;103216;1273;5436779;-57
2023/05/31 11:17:20;;;;;;;4.50;0.70;;;;;;;22.22;36.13;100937.52;106302;1261;22558;-58
2023/05/31 11:19:56;;;;;;;6.50;0.50;;;;;;;22.22;36.23;100937.88;105948;1270;22531;-58
2023/05/31 11:22:28;;;;;;;7.90;1.00;;;;;;;22.24;36.02;100935.39;109987;1273;22174;-59
2023/05/31 11:24:59;;;;;;;8.70;0.70;;;;;;;22.22;35.48;100924.32;109966;1274;22440;-60
2023/05/31 11:27:40;;;;;;;5.70;0.90;;;;;;;22.17;35.22;100927.61;110005;1270;22326;-59
2023/05/31 11:30:13;;;;;;;4.10;0.80;;;;;;;22.13;35.31;100919.02;109992;1279;22291;-58
2023/05/31 11:33:16;;;;;;;7.60;0.70;;;;;;;22.14;35.62;100916.67;110001;1274;22202;-59
2023/05/31 11:35:47;;;;;;;3.10;0.40;;;;;;;22.16;35.58;100914.93;110055;1279;22272;-59
2023/05/31 11:38:18;;;;;;;7.60;0.60;;;;;;;22.21;35.37;100916.54;110022;1264;22215;-59
2023/05/31 11:40:49;;;;;;;13.10;0.70;;;;;;;22.23;35.32;100915.77;109975;1273;22317;-60